Time;durP1;ratioP1;P1;durP2;ratioP2;P2;SDS_P1;SDS_P2;PMS_P1;PMS_P2;Temp;Humidity;BMP_temperature;BMP_pressure;BME280_temperature;BME280_humidity;BME280_pressure;Samples;Min_cycle;Max_cycle;Signal;HPM_P1;HPM_P2
2023/06/27 00:01:39;;;;;;;18.05;4.53;;;;;;;15.12;91.34;101966.75;5082946;28;20460;-69
2023/06/27 00:04:04;;;;;;;20.63;4.38;;;;;;;15.11;91.82;101970.28;5081710;28;20051;-69
2023/06/27 00:06:30;;;;;;;25.38;5.43;;;;;;;15.03;92.57;101959.09;5083688;28;20463;-69
2023/06/27 00:08:55;;;;;;;12.55;4.30;;;;;;;14.98;92.50;101946.09;5083136;28;20475;-69
2023/06/27 00:11:20;;;;;;;13.32;4.30;;;;;;;14.97;92.46;101951.34;5089444;28;20035;-69
2023/06/27 00:13:46;;;;;;;14.13;5.10;;;;;;;15.05;92.24;101957.31;5082621;28;20028;-69
2023/06/27 00:16:15;;;;;;;17.73;4.82;;;;;;;15.06;92.63;101959.03;5080803;28;20072;-70
2023/06/27 00:18:42;;;;;;;22.38;4.68;;;;;;;14.98;93.41;101947.84;5083652;28;20027;-69
2023/06/27 00:21:07;;;;;;;17.13;4.85;;;;;;;15.03;93.74;101953.84;5081285;28;20032;-69
2023/06/27 00:23:33;;;;;;;11.20;4.47;;;;;;;15.03;93.89;101959.09;5082991;28;20495;-69
2023/06/27 00:26:02;;;;;;;9.98;3.80;;;;;;;14.96;93.65;101949.66;5083603;28;20472;-68
2023/06/27 00:28:28;;;;;;;8.93;4.05;;;;;;;14.97;94.14;101959.25;5078690;28;20031;-69
2023/06/27 00:30:54;;;;;;;9.60;4.57;;;;;;;14.95;94.78;101964.53;5083528;28;20045;-69
2023/06/27 00:33:19;;;;;;;8.52;3.90;;;;;;;14.94;94.80;101967.19;5081894;28;20108;-69
2023/06/27 00:35:44;;;;;;;9.65;4.00;;;;;;;14.98;94.34;101961.00;5081490;28;20492;-69
2023/06/27 00:38:10;;;;;;;11.10;4.20;;;;;;;14.98;94.77;101953.97;5084125;28;20028;-69
2023/06/27 00:40:35;;;;;;;7.10;3.88;;;;;;;15.03;94.73;101958.25;5080382;28;20046;-69
2023/06/27 00:43:01;;;;;;;9.93;4.30;;;;;;;15.07;94.66;101954.63;5085713;28;20020;-69
2023/06/27 00:45:26;;;;;;;12.57;4.55;;;;;;;15.07;93.69;101959.88;5079561;28;20173;-69
2023/06/27 00:47:56;;;;;;;11.75;4.20;;;;;;;15.03;95.22;101956.47;5082186;28;20477;-69
2023/06/27 00:50:22;;;;;;;13.60;4.82;;;;;;;15.01;95.02;101962.66;5086668;28;20039;-69
2023/06/27 00:52:48;;;;;;;12.30;4.20;;;;;;;14.92;94.64;101955.88;5084649;28;20112;-69
2023/06/27 00:55:14;;;;;;;14.55;4.53;;;;;;;14.94;95.00;101964.56;5091225;28;20120;-69
2023/06/27 00:57:40;;;;;;;12.95;4.60;;;;;;;14.90;94.76;101970.78;5080464;28;20032;-69
2023/06/27 01:00:09;;;;;;;17.15;4.88;;;;;;;14.94;95.18;101969.81;5086479;28;20032;-69
2023/06/27 01:02:35;;;;;;;13.40;4.82;;;;;;;14.90;95.31;101961.16;5077514;28;20094;-69
2023/06/27 01:05:01;;;;;;;12.35;4.63;;;;;;;14.89;94.84;101966.44;5083653;28;20503;-69
2023/06/27 01:07:31;;;;;;;13.20;4.20;;;;;;;14.89;95.94;101963.81;5086801;28;20115;-69
2023/06/27 01:10:03;;;;;;;14.65;4.85;;;;;;;14.90;95.66;101969.03;5084502;28;20113;-69
2023/06/27 01:12:39;;;;;;;9.33;4.23;;;;;;;14.91;95.48;101970.78;5079227;28;20070;-69
2023/06/27 01:15:06;;;;;;;8.25;4.57;;;;;;;14.87;95.91;101970.84;5084772;28;20111;-69
2023/06/27 01:17:35;;;;;;;9.75;4.68;;;;;;;14.91;95.91;101973.41;5068661;28;20028;-69
2023/06/27 01:20:02;;;;;;;11.63;4.53;;;;;;;14.87;95.47;101961.22;5086431;28;20024;-69
2023/06/27 01:22:32;;;;;;;10.95;4.55;;;;;;;14.87;95.91;101966.47;5085333;28;20036;-69
2023/06/27 01:24:59;;;;;;;7.32;3.80;;;;;;;14.82;95.73;101962.25;5086176;28;20025;-69
2023/06/27 01:27:25;;;;;;;10.45;4.28;;;;;;;14.84;95.52;101971.78;5087933;28;20043;-69
2023/06/27 01:29:51;;;;;;;9.27;4.03;;;;;;;14.74;95.91;101955.38;5086741;28;20048;-69
2023/06/27 01:32:34;;;;;;;9.70;4.32;;;;;;;14.75;96.67;101970.25;5086090;28;20051;-69
2023/06/27 01:35:27;;;;;;;7.70;4.32;;;;;;;14.76;95.44;101965.88;5087093;28;20085;-69
2023/06/27 01:38:02;;;;;;;9.60;4.20;;;;;;;14.71;96.41;101971.22;5078654;28;20029;-69
2023/06/27 01:40:32;;;;;;;6.82;3.90;;;;;;;14.68;96.80;101979.19;5090361;28;20024;-69
2023/06/27 01:43:03;;;;;;;12.82;4.18;;;;;;;14.69;96.81;101969.53;5078362;28;20024;-69
2023/06/27 01:45:29;;;;;;;16.75;4.20;;;;;;;14.68;97.89;101966.06;5081571;28;20033;-69
2023/06/27 01:47:57;;;;;;;14.13;4.35;;;;;;;14.63;97.16;101962.66;5085609;28;20028;-69
2023/06/27 01:50:23;;;;;;;9.40;4.03;;;;;;;14.65;97.90;101968.75;5088075;28;20050;-69
2023/06/27 01:52:52;;;;;;;10.43;4.30;;;;;;;14.67;97.96;101963.44;5084859;28;20036;-69
2023/06/27 01:55:17;;;;;;;9.40;4.15;;;;;;;14.66;97.56;101961.72;5080610;28;20027;-69
2023/06/27 01:57:43;;;;;;;8.95;3.92;;;;;;;14.65;98.50;101958.25;5082113;28;20024;-68
2023/06/27 02:00:10;;;;;;;10.05;3.95;;;;;;;14.64;98.13;101953.88;5076506;28;20032;-69
2023/06/27 02:02:35;;;;;;;9.45;4.28;;;;;;;14.69;98.28;101959.91;5071840;28;20354;-69
2023/06/27 02:05:01;;;;;;;9.77;3.95;;;;;;;14.70;98.21;101960.75;5080969;28;20032;-68
2023/06/27 02:07:26;;;;;;;11.23;4.22;;;;;;;14.71;98.59;101954.59;5089281;28;20032;-69
2023/06/27 02:09:51;;;;;;;8.68;3.85;;;;;;;14.69;97.89;101948.53;5082749;28;20028;-69
2023/06/27 02:12:17;;;;;;;14.20;4.20;;;;;;;14.67;98.20;101956.44;5076573;28;20503;-69
2023/06/27 02:14:42;;;;;;;7.90;3.83;;;;;;;14.70;98.34;101950.25;5082938;28;20038;-69
2023/06/27 02:17:08;;;;;;;7.57;3.63;;;;;;;14.65;98.55;101950.38;5082877;28;20028;-69
2023/06/27 02:19:33;;;;;;;10.70;3.95;;;;;;;14.65;99.18;101942.50;5087991;28;20024;-69
2023/06/27 02:21:58;;;;;;;10.25;3.88;;;;;;;14.65;98.90;101945.13;5081628;28;20064;-69
2023/06/27 02:24:24;;;;;;;12.98;4.28;;;;;;;14.65;98.72;101947.75;5088335;28;20103;-69
2023/06/27 02:26:49;;;;;;;10.88;4.60;;;;;;;14.69;98.84;101944.16;5082151;28;20027;-69
2023/06/27 02:29:14;;;;;;;8.77;3.42;;;;;;;14.69;98.79;101953.78;5086425;28;20055;-69
2023/06/27 02:31:40;;;;;;;9.18;3.50;;;;;;;14.73;99.40;101951.03;5078385;28;20111;-69
2023/06/27 02:34:05;;;;;;;9.70;3.95;;;;;;;14.72;99.10;101946.69;5086876;28;20016;-69
2023/06/27 02:36:30;;;;;;;18.20;4.10;;;;;;;14.69;98.99;101938.91;5083844;28;20027;-69
2023/06/27 02:38:57;;;;;;;11.00;3.95;;;;;;;14.76;99.76;101942.25;5084951;28;20020;-69
2023/06/27 02:41:23;;;;;;;8.50;3.95;;;;;;;14.72;100.00;101941.47;5084236;28;20422;-69
2023/06/27 02:43:49;;;;;;;9.77;4.00;;;;;;;14.70;99.68;101943.25;5084105;28;20028;-69
2023/06/27 02:46:14;;;;;;;14.85;4.70;;;;;;;14.66;99.88;101930.22;5085088;28;20031;-69
2023/06/27 02:48:39;;;;;;;8.63;3.95;;;;;;;14.66;99.97;101935.47;5082746;28;20031;-69
2023/06/27 02:51:05;;;;;;;10.40;4.40;;;;;;;14.64;100.00;101942.53;5085114;28;20032;-69
2023/06/27 02:53:30;;;;;;;10.93;3.92;;;;;;;14.63;100.00;101938.19;5085043;28;20111;-69
2023/06/27 02:55:57;;;;;;;7.55;3.90;;;;;;;14.60;100.00;101936.47;5083292;28;20032;-69
2023/06/27 02:58:23;;;;;;;9.85;3.88;;;;;;;14.55;100.00;101924.34;5084892;28;20077;-69
2023/06/27 03:00:49;;;;;;;9.82;4.35;;;;;;;14.50;100.00;101929.69;5084168;28;20535;-69
2023/06/27 03:03:14;;;;;;;6.78;3.53;;;;;;;14.45;100.00;101928.91;5082933;28;20099;-69
2023/06/27 03:05:39;;;;;;;11.35;4.28;;;;;;;14.42;100.00;101945.59;5084464;28;20031;-69
2023/06/27 03:08:04;;;;;;;10.73;3.90;;;;;;;14.38;100.00;101943.06;5080466;28;20075;-69
2023/06/27 03:10:30;;;;;;;7.82;3.63;;;;;;;14.32;100.00;101940.56;5083644;28;20036;-69
2023/06/27 03:12:55;;;;;;;11.75;4.00;;;;;;;14.33;100.00;101943.19;5083349;28;20472;-69
2023/06/27 03:15:21;;;;;;;7.15;3.72;;;;;;;14.30;100.00;101930.13;5083887;28;20365;-69
2023/06/27 03:17:46;;;;;;;11.98;4.28;;;;;;;14.29;100.00;101936.28;5084636;28;20103;-69
2023/06/27 03:20:11;;;;;;;9.82;4.05;;;;;;;14.29;100.00;101937.13;5081591;28;20117;-69
2023/06/27 03:22:37;;;;;;;14.63;3.88;;;;;;;14.26;100.00;101950.31;5087724;28;20027;-69
2023/06/27 03:25:02;;;;;;;10.23;4.18;;;;;;;14.27;100.00;101951.19;5080468;28;20031;-69
2023/06/27 03:27:27;;;;;;;11.60;4.22;;;;;;;14.24;100.00;101946.84;5087707;28;20132;-69
2023/06/27 03:29:53;;;;;;;13.32;4.45;;;;;;;14.21;100.00;101952.16;5080793;28;20543;-69
2023/06/27 03:32:18;;;;;;;10.30;4.57;;;;;;;14.23;100.00;101945.13;5086790;28;20491;-69
2023/06/27 03:34:44;;;;;;;10.55;4.10;;;;;;;14.25;100.00;101945.09;5081040;28;20043;-69
2023/06/27 03:37:09;;;;;;;12.48;4.63;;;;;;;14.25;100.00;101952.94;5085856;28;20031;-69
2023/06/27 03:39:38;;;;;;;9.63;4.00;;;;;;;14.20;100.00;101949.59;5082499;28;20024;-69
2023/06/27 03:42:04;;;;;;;14.57;4.45;;;;;;;14.20;100.00;101950.44;5084402;28;20103;-69
2023/06/27 03:44:31;;;;;;;9.73;3.67;;;;;;;14.16;100.00;101946.16;5084184;28;20110;-69
2023/06/27 03:46:59;;;;;;;9.85;3.92;;;;;;;14.15;100.00;101947.03;5081843;28;20048;-69
2023/06/27 03:49:24;;;;;;;13.27;4.15;;;;;;;14.08;100.00;101948.06;5084150;28;20038;-69
2023/06/27 03:51:52;;;;;;;11.65;3.88;;;;;;;14.08;100.00;101947.22;5074485;28;20111;-69
2023/06/27 03:54:17;;;;;;;14.15;3.97;;;;;;;14.03;100.00;101949.94;5084118;28;20024;-69
2023/06/27 03:56:43;;;;;;;10.85;3.78;;;;;;;14.10;100.00;101958.53;5083389;28;20038;-69
2023/06/27 03:59:08;;;;;;;13.95;4.70;;;;;;;14.08;100.00;101955.06;5083072;28;20020;-69
2023/06/27 04:01:34;;;;;;;8.15;3.90;;;;;;;14.06;100.00;101962.97;5081232;28;20028;-69
2023/06/27 04:04:00;;;;;;;8.43;4.20;;;;;;;14.05;100.00;101961.22;5081780;28;20390;-69
2023/06/27 04:06:25;;;;;;;11.65;4.90;;;;;;;14.02;100.00;101958.69;5081650;28;20119;-69
2023/06/27 04:08:51;;;;;;;8.95;4.68;;;;;;;14.02;100.00;101958.69;5083828;28;20032;-69
2023/06/27 04:11:16;;;;;;;16.75;4.93;;;;;;;14.00;100.00;101958.72;5081529;28;20021;-69
2023/06/27 04:13:41;;;;;;;17.15;4.22;;;;;;;13.98;100.00;101963.13;5082571;28;20051;-69
2023/06/27 04:16:07;;;;;;;10.55;4.25;;;;;;;13.97;100.00;101957.91;5081876;28;20025;-69
2023/06/27 04:18:32;;;;;;;13.23;4.47;;;;;;;13.88;100.00;101945.00;5083293;28;20463;-69
2023/06/27 04:20:58;;;;;;;8.85;3.88;;;;;;;13.86;100.00;101950.25;5082794;28;20031;-69
2023/06/27 04:23:23;;;;;;;10.57;4.40;;;;;;;13.86;100.00;101949.38;5080495;28;20029;-69
2023/06/27 04:26:07;;;;;;;12.27;4.55;;;;;;;13.87;100.00;101954.63;5086292;28;20486;-69
2023/06/27 04:28:32;;;;;;;;;;;;;;;13.89;100.00;101957.19;5085087;28;20031;-69
2023/06/27 04:30:59;;;;;;;13.50;4.40;;;;;;;13.81;100.00;101955.59;5087590;28;20291;-69
2023/06/27 04:33:24;;;;;;;15.45;4.55;;;;;;;13.79;100.00;101953.88;5085835;28;20069;-69
2023/06/27 04:35:49;;;;;;;10.63;4.50;;;;;;;13.75;100.00;101947.84;5086963;28;20024;-69
2023/06/27 04:38:15;;;;;;;17.90;4.82;;;;;;;13.78;100.00;101963.50;5087866;28;20024;-69
2023/06/27 04:40:43;;;;;;;14.35;4.43;;;;;;;13.80;100.00;101963.50;5085665;28;20020;-69
2023/06/27 04:43:08;;;;;;;14.05;5.22;;;;;;;13.78;100.00;101962.66;5088904;28;20472;-69
2023/06/27 04:45:34;;;;;;;13.55;5.03;;;;;;;13.80;100.00;101961.72;5083823;28;20020;-69
2023/06/27 04:47:59;;;;;;;13.45;5.03;;;;;;;13.78;100.00;101966.13;5090742;28;20032;-69
2023/06/27 04:50:24;;;;;;;11.23;4.95;;;;;;;13.74;100.00;101958.38;5083683;28;20031;-69
2023/06/27 04:52:50;;;;;;;15.80;5.10;;;;;;;13.84;100.00;101972.16;5092036;28;20031;-69
2023/06/27 04:55:15;;;;;;;11.77;4.90;;;;;;;13.88;100.00;101971.19;5083253;28;20021;-69
2023/06/27 04:57:41;;;;;;;15.13;4.75;;;;;;;13.87;100.00;101970.34;5090911;28;20515;-69
2023/06/27 05:00:10;;;;;;;11.93;5.28;;;;;;;13.93;100.00;101977.19;5084364;28;20036;-69
2023/06/27 05:02:35;;;;;;;14.30;4.72;;;;;;;14.01;100.00;101967.44;5080576;28;20025;-69
2023/06/27 05:05:01;;;;;;;12.80;5.05;;;;;;;14.11;100.00;101973.38;5084951;28;20020;-69
2023/06/27 05:07:26;;;;;;;11.57;5.40;;;;;;;14.21;100.00;101972.28;5089008;28;20112;-69
2023/06/27 05:09:51;;;;;;;12.20;5.18;;;;;;;14.35;100.00;101977.22;5083160;28;20376;-69
2023/06/27 05:12:16;;;;;;;12.70;4.80;;;;;;;14.47;100.00;101967.34;5090270;28;20032;-69
2023/06/27 05:14:42;;;;;;;10.15;5.30;;;;;;;14.61;100.00;101971.44;5083236;28;20060;-69
2023/06/27 05:17:07;;;;;;;12.38;5.75;;;;;;;14.77;100.00;101975.47;5089789;28;20494;-69
2023/06/27 05:19:32;;;;;;;12.95;5.40;;;;;;;15.01;100.00;101974.03;5083458;28;20066;-69
2023/06/27 05:21:57;;;;;;;15.02;4.90;;;;;;;15.30;100.00;101972.44;5089133;28;20020;-69
2023/06/27 05:24:23;;;;;;;16.25;5.20;;;;;;;15.50;100.00;101964.94;5083997;28;20429;-69
2023/06/27 05:26:48;;;;;;;13.80;5.18;;;;;;;15.68;100.00;101968.88;5086967;28;20045;-69
2023/06/27 05:29:14;;;;;;;13.55;4.85;;;;;;;15.64;100.00;101970.69;5086393;28;20491;-69
2023/06/27 05:31:40;;;;;;;15.63;5.60;;;;;;;15.56;100.00;101969.16;5084325;28;20378;-69
2023/06/27 05:34:07;;;;;;;11.65;5.32;;;;;;;15.47;100.00;101967.66;5086488;28;20379;-69
2023/06/27 05:36:33;;;;;;;20.67;6.30;;;;;;;15.52;100.00;101972.75;5085119;28;20073;-69
2023/06/27 05:38:58;;;;;;;10.25;4.60;;;;;;;15.58;100.00;101962.94;5085621;28;20027;-69
2023/06/27 05:41:33;;;;;;;14.77;5.93;;;;;;;15.74;100.00;101968.69;5085895;28;20379;-69
2023/06/27 05:43:58;;;;;;;14.43;5.80;;;;;;;15.88;100.00;101963.06;5075814;28;20421;-69
2023/06/27 05:46:23;;;;;;;16.13;5.32;;;;;;;15.96;100.00;101968.97;5085211;28;20024;-69
2023/06/27 05:48:49;;;;;;;15.20;5.07;;;;;;;16.09;100.00;101969.50;5085500;28;20039;-69
2023/06/27 05:51:14;;;;;;;13.25;5.45;;;;;;;16.05;100.00;101962.56;5085658;28;20074;-70
2023/06/27 05:53:39;;;;;;;13.15;5.80;;;;;;;16.06;100.00;101959.91;5085369;28;20035;-69
2023/06/27 05:56:05;;;;;;;11.10;4.78;;;;;;;16.10;100.00;101965.94;5085827;28;20031;-69
2023/06/27 05:58:30;;;;;;;15.82;5.53;;;;;;;16.09;100.00;101958.97;5086795;28;20040;-69
2023/06/27 06:00:56;;;;;;;18.50;5.82;;;;;;;16.16;100.00;101973.69;5081502;28;20380;-69
2023/06/27 06:03:22;;;;;;;16.27;5.28;;;;;;;16.18;100.00;101965.72;5081650;28;20055;-69
2023/06/27 06:05:47;;;;;;;18.92;5.72;;;;;;;16.19;100.00;101960.44;5083874;28;20032;-69
2023/06/27 06:08:13;;;;;;;16.83;6.13;;;;;;;16.25;100.00;101967.25;5085296;28;20032;-69
2023/06/27 06:10:38;;;;;;;15.57;5.53;;;;;;;16.32;100.00;101967.06;5085495;28;20059;-69
2023/06/27 06:13:04;;;;;;;14.00;5.95;;;;;;;16.26;100.00;101940.06;5082948;28;20032;-69
2023/06/27 06:15:29;;;;;;;12.52;5.63;;;;;;;16.48;100.00;101956.06;5085621;28;20111;-69
2023/06/27 06:17:54;;;;;;;19.17;6.40;;;;;;;16.56;100.00;101954.91;5085725;28;20024;-69
2023/06/27 06:20:20;;;;;;;12.18;5.53;;;;;;;16.65;100.00;101958.19;5083035;28;20863;-69
2023/06/27 06:22:46;;;;;;;13.05;5.65;;;;;;;16.75;100.00;101965.78;5087408;28;20036;-69
2023/06/27 06:25:12;;;;;;;16.48;5.28;;;;;;;16.87;100.00;101964.50;5082627;28;20025;-69
2023/06/27 06:27:37;;;;;;;15.80;5.50;;;;;;;16.95;100.00;101973.03;5088448;28;20032;-69
2023/06/27 06:30:06;;;;;;;12.15;5.32;;;;;;;17.04;100.00;101972.75;5082083;28;20420;-69
2023/06/27 06:32:31;;;;;;;14.57;6.00;;;;;;;17.07;100.00;101966.53;5088793;28;20028;-69
2023/06/27 06:34:56;;;;;;;12.93;5.45;;;;;;;17.13;100.00;101970.72;5081521;28;20028;-69
2023/06/27 06:37:22;;;;;;;11.38;5.78;;;;;;;17.22;100.00;101973.91;5088788;28;20023;-69
2023/06/27 06:39:47;;;;;;;15.65;6.45;;;;;;;17.26;100.00;101972.03;5082275;28;20044;-69
2023/06/27 06:42:12;;;;;;;18.05;6.00;;;;;;;17.32;100.00;101982.38;5086381;28;20024;-69
2023/06/27 06:44:38;;;;;;;14.85;6.35;;;;;;;17.42;100.00;101982.91;5084410;28;20109;-69
2023/06/27 06:47:03;;;;;;;14.48;6.35;;;;;;;17.44;100.00;101983.75;5084768;28;20463;-69
2023/06/27 06:49:29;;;;;;;13.13;5.57;;;;;;;17.53;99.43;101989.56;5083935;28;20035;-69
2023/06/27 06:51:54;;;;;;;18.67;6.05;;;;;;;17.61;99.75;101985.78;5083965;28;20032;-69
2023/06/27 06:54:20;;;;;;;15.40;6.35;;;;;;;17.69;99.11;101978.47;5085056;28;20031;-69
2023/06/27 06:56:51;;;;;;;11.65;6.07;;;;;;;17.76;97.64;101980.00;5083335;28;20028;-69
2023/06/27 06:59:16;;;;;;;15.27;6.55;;;;;;;17.83;97.49;101984.16;5074735;28;20020;-69
2023/06/27 07:01:42;;;;;;;14.32;6.35;;;;;;;17.82;97.66;101965.75;5067320;28;20481;-69
2023/06/27 07:04:07;;;;;;;17.35;6.85;;;;;;;18.00;98.70;101973.84;5079037;28;20028;-70
2023/06/27 07:06:33;;;;;;;15.93;5.95;;;;;;;18.12;95.84;101984.88;5084084;28;20028;-69
2023/06/27 07:08:58;;;;;;;13.85;5.78;;;;;;;18.26;96.60;101982.59;5083591;28;20032;-69
2023/06/27 07:11:23;;;;;;;14.85;5.63;;;;;;;18.39;94.64;101981.19;5082553;28;20095;-69
2023/06/27 07:13:49;;;;;;;14.10;6.47;;;;;;;18.50;91.06;101983.41;5084634;28;20529;-69
2023/06/27 07:16:14;;;;;;;15.70;5.93;;;;;;;18.64;91.19;101988.19;5081883;28;20112;-69
2023/06/27 07:18:39;;;;;;;13.45;5.95;;;;;;;18.73;88.91;101990.47;5084496;28;20012;-69
2023/06/27 07:21:04;;;;;;;14.68;5.25;;;;;;;18.89;89.26;101998.66;5083642;28;20032;-69
2023/06/27 07:23:30;;;;;;;9.20;5.20;;;;;;;19.05;89.33;101996.28;5082399;28;20537;-69
2023/06/27 07:25:55;;;;;;;13.27;4.80;;;;;;;19.13;86.12;101965.13;5084324;28;20024;-69
2023/06/27 07:28:20;;;;;;;7.60;4.13;;;;;;;19.26;84.65;101987.47;5082691;28;20032;-69
2023/06/27 07:30:46;;;;;;;9.75;4.25;;;;;;;19.29;81.90;101982.06;5083080;28;20139;-74
2023/06/27 07:33:12;;;;;;;8.65;3.60;;;;;;;19.56;76.53;101981.81;5084573;28;20095;-74
2023/06/27 07:35:38;;;;;;;12.90;4.50;;;;;;;19.93;79.17;101973.13;5082466;28;20503;-73
2023/06/27 07:38:03;;;;;;;8.80;3.78;;;;;;;20.07;74.81;101981.31;5085238;28;20107;-69
2023/06/27 07:40:28;;;;;;;12.75;4.63;;;;;;;20.37;73.17;101972.03;5080977;28;20073;-69
2023/06/27 07:42:54;;;;;;;12.30;3.35;;;;;;;20.76;70.69;101969.31;5073809;28;20046;-69
2023/06/27 07:45:19;;;;;;;10.35;2.97;;;;;;;20.99;66.18;101981.44;5079527;28;20503;-69
2023/06/27 07:47:44;;;;;;;7.13;3.03;;;;;;;20.94;65.96;101964.91;5088266;28;20040;-69
2023/06/27 07:50:10;;;;;;;9.20;3.40;;;;;;;20.91;68.54;101973.00;5080605;28;20035;-69
2023/06/27 07:52:39;;;;;;;10.23;3.47;;;;;;;20.98;67.25;101974.44;5086769;28;20020;-69
2023/06/27 07:55:05;;;;;;;8.48;2.78;;;;;;;21.04;64.65;101974.97;5080730;28;20027;-69
2023/06/27 07:57:30;;;;;;;9.77;2.92;;;;;;;21.02;67.28;101976.84;5086293;28;20028;-69
2023/06/27 07:59:56;;;;;;;6.15;2.53;;;;;;;20.83;62.20;101968.09;5080937;28;20101;-69
2023/06/27 08:02:21;;;;;;;11.88;2.67;;;;;;;20.79;60.54;101977.09;5078525;28;20016;-69
2023/06/27 08:04:47;;;;;;;9.23;2.90;;;;;;;20.96;62.04;101971.88;5076549;28;20108;-69
2023/06/27 08:07:12;;;;;;;7.32;3.15;;;;;;;21.30;61.89;101977.28;5086229;28;20035;-69
2023/06/27 08:09:37;;;;;;;7.10;2.60;;;;;;;21.45;61.68;101969.44;5080132;28;20038;-69
2023/06/27 08:12:06;;;;;;;6.65;2.38;;;;;;;21.43;57.47;101975.75;5086784;28;20486;-70
2023/06/27 08:14:31;;;;;;;8.52;2.33;;;;;;;21.32;58.94;101970.06;5080031;28;20493;-69
2023/06/27 08:16:56;;;;;;;9.80;2.40;;;;;;;21.39;59.58;101968.88;5086414;28;20059;-69
2023/06/27 08:19:22;;;;;;;6.13;2.22;;;;;;;21.50;58.86;101974.50;5080810;28;20028;-70
2023/06/27 08:21:47;;;;;;;5.47;2.50;;;;;;;21.50;60.69;101971.84;5084137;28;20029;-69
2023/06/27 08:24:12;;;;;;;5.50;2.60;;;;;;;21.39;57.84;101974.19;5083603;28;20036;-69
2023/06/27 08:26:38;;;;;;;7.45;2.60;;;;;;;21.40;59.79;101971.44;5081336;28;20032;-69
2023/06/27 08:29:06;;;;;;;9.93;2.70;;;;;;;21.58;59.33;101966.13;5083598;28;20064;-69
2023/06/27 08:31:31;;;;;;;7.38;2.42;;;;;;;21.76;59.19;101972.28;5082082;28;20024;-70
2023/06/27 08:33:56;;;;;;;10.60;3.10;;;;;;;21.85;56.44;101972.66;5083107;28;20035;-70
2023/06/27 08:36:21;;;;;;;8.07;2.90;;;;;;;21.91;58.81;101968.81;5082709;28;20024;-70
2023/06/27 08:38:47;;;;;;;8.25;2.38;;;;;;;21.88;52.70;101971.63;5082710;28;20119;-70
2023/06/27 08:41:15;;;;;;;8.15;2.20;;;;;;;21.87;53.76;101970.75;5082921;28;20459;-69
2023/06/27 08:43:40;;;;;;;5.32;2.00;;;;;;;21.88;61.17;101966.31;5082065;28;20468;-69
2023/06/27 08:46:10;;;;;;;6.43;2.05;;;;;;;22.02;58.50;101965.59;5083740;28;20053;-69
2023/06/27 08:48:41;;;;;;;5.15;2.28;;;;;;;22.18;53.77;101964.69;5082046;28;20053;-69
2023/06/27 08:51:10;;;;;;;8.10;2.60;;;;;;;22.24;52.34;101960.00;5069887;28;20032;-69
2023/06/27 08:53:37;;;;;;;6.93;2.33;;;;;;;22.04;56.94;101961.91;5083437;28;20112;-69
2023/06/27 08:56:10;;;;;;;6.78;2.10;;;;;;;21.91;53.59;101952.91;5081888;28;20464;-69
2023/06/27 08:58:44;;;;;;;6.22;2.30;;;;;;;21.57;57.20;101951.16;5084179;28;20042;-69
2023/06/27 09:01:11;;;;;;;4.57;2.00;;;;;;;21.26;57.74;101950.06;5080152;28;20040;-69
2023/06/27 09:03:36;;;;;;;5.38;2.33;;;;;;;20.97;60.71;101954.16;5079507;28;20198;-69
2023/06/27 09:06:05;;;;;;;5.78;2.25;;;;;;;20.74;61.21;101950.84;5080968;28;20044;-69
2023/06/27 09:08:31;;;;;;;6.75;2.00;;;;;;;20.65;62.50;101951.28;5082387;28;20031;-69
2023/06/27 09:10:58;;;;;;;5.88;2.33;;;;;;;20.69;59.74;101958.13;5082544;28;20035;-70
2023/06/27 09:13:24;;;;;;;5.63;1.75;;;;;;;20.81;62.50;101960.22;5073737;28;20034;-70
2023/06/27 09:15:49;;;;;;;6.95;2.05;;;;;;;21.05;61.63;101960.78;5086450;28;20028;-69
2023/06/27 09:18:14;;;;;;;8.77;2.30;;;;;;;21.32;62.14;101962.13;5084692;28;20104;-70
2023/06/27 09:20:40;;;;;;;5.47;2.00;;;;;;;21.41;60.77;101961.69;5082330;28;20029;-70
2023/06/27 09:23:10;;;;;;;6.55;2.08;;;;;;;21.58;58.99;101955.50;5082623;28;20472;-69
2023/06/27 09:25:35;;;;;;;4.70;2.00;;;;;;;21.76;54.68;101951.91;5086069;28;20024;-69
2023/06/27 09:28:17;;;;;;;5.05;1.73;;;;;;;21.96;58.11;101959.66;5087426;28;20094;-69
2023/06/27 09:30:54;;;;;;;4.82;1.48;;;;;;;22.19;54.93;101963.75;5075150;28;20083;-70
2023/06/27 09:33:19;;;;;;;3.28;1.45;;;;;;;22.27;51.28;101967.78;5083624;28;20021;-70
2023/06/27 09:35:45;;;;;;;2.95;1.45;;;;;;;22.62;49.18;101958.69;5086110;28;20069;-69
2023/06/27 09:38:10;;;;;;;3.80;1.48;;;;;;;22.93;50.34;101958.78;5087042;28;20029;-69
2023/06/27 09:40:36;;;;;;;6.20;1.73;;;;;;;23.02;46.44;101964.44;5083767;28;20025;-69
2023/06/27 09:43:04;;;;;;;2.75;1.58;;;;;;;23.51;48.95;101966.88;5089891;28;20107;-70
2023/06/27 09:45:30;;;;;;;4.90;1.45;;;;;;;23.87;44.02;101960.28;5081936;28;20028;-69
2023/06/27 09:47:56;;;;;;;4.50;1.42;;;;;;;23.79;46.50;101951.91;5091082;28;20033;-69
2023/06/27 09:50:31;;;;;;;6.90;1.70;;;;;;;23.94;45.48;101971.41;5082252;28;20075;-70
2023/06/27 09:52:59;;;;;;;5.72;1.35;;;;;;;24.03;45.13;101974.34;5091334;28;20024;-69
2023/06/27 09:55:25;;;;;;;4.00;1.17;;;;;;;24.30;46.10;101977.09;5082978;28;20028;-70
2023/06/27 09:57:51;;;;;;;2.47;1.35;;;;;;;24.39;41.70;101974.78;5082738;28;20036;-70
2023/06/27 10:00:21;;;;;;;2.47;1.30;;;;;;;24.56;39.74;101971.06;5087412;28;20028;-70
2023/06/27 10:02:48;;;;;;;3.10;1.20;;;;;;;24.51;41.36;101972.22;5078075;28;20045;-70
2023/06/27 10:05:14;;;;;;;3.13;1.30;;;;;;;24.68;45.48;101959.59;5085191;28;20024;-70
2023/06/27 10:07:45;;;;;;;5.05;1.27;;;;;;;24.49;41.59;101970.59;5089669;28;20054;-70
2023/06/27 10:10:11;;;;;;;3.00;1.45;;;;;;;23.89;42.62;101974.34;5084348;28;20035;-70
2023/06/27 10:12:37;;;;;;;3.42;1.20;;;;;;;23.69;44.36;101980.03;5086269;28;20059;-70
2023/06/27 10:15:08;;;;;;;2.13;1.10;;;;;;;23.92;42.46;101963.50;5082545;28;20073;-70
2023/06/27 10:17:34;;;;;;;5.03;1.40;;;;;;;24.28;42.77;101976.31;5088831;28;20431;-70
2023/06/27 10:20:00;;;;;;;2.75;1.33;;;;;;;24.55;43.77;101958.69;5077680;28;20048;-70
2023/06/27 10:22:30;;;;;;;2.50;1.23;;;;;;;24.96;39.92;101966.66;5081243;28;20085;-70
2023/06/27 10:25:01;;;;;;;3.92;1.20;;;;;;;25.15;41.09;101966.31;5082360;28;20023;-69
2023/06/27 10:27:26;;;;;;;4.63;1.25;;;;;;;24.93;38.57;101973.03;5081969;28;20048;-70
2023/06/27 10:29:52;;;;;;;3.33;1.48;;;;;;;24.99;40.87;101966.44;5084655;28;20040;-70
2023/06/27 10:32:19;;;;;;;4.75;1.30;;;;;;;24.74;42.13;101969.88;5089443;28;20034;-70
2023/06/27 10:34:45;;;;;;;3.92;1.23;;;;;;;24.43;40.48;101973.69;5076319;28;20506;-70
2023/06/27 10:37:26;;;;;;;4.35;1.40;;;;;;;24.21;44.12;101976.81;5088059;28;20032;-70
2023/06/27 10:40:03;;;;;;;1.63;0.98;;;;;;;24.27;43.17;101979.09;5076951;28;20028;-70
2023/06/27 10:42:32;;;;;;;2.95;1.30;;;;;;;24.32;41.00;101970.78;5081943;28;20035;-70
2023/06/27 10:45:07;;;;;;;6.68;1.30;;;;;;;24.60;39.27;101960.09;5071048;28;20486;-70
2023/06/27 10:47:34;;;;;;;3.42;1.33;;;;;;;24.63;38.77;101967.06;5088498;28;20031;-70
2023/06/27 10:50:09;;;;;;;3.35;1.25;;;;;;;24.86;40.99;101965.53;5076684;28;20036;-70
2023/06/27 10:52:35;;;;;;;4.28;1.10;;;;;;;25.16;39.87;101962.66;5089348;28;20024;-70
2023/06/27 10:55:18;;;;;;;3.22;1.50;;;;;;;25.24;40.47;101955.00;5081012;28;20822;-70
2023/06/27 10:57:45;;;;;;;3.40;1.48;;;;;;;25.23;40.82;101946.13;5086630;28;20036;-70
2023/06/27 11:00:15;;;;;;;4.95;1.98;;;;;;;25.06;38.69;101951.72;5076568;28;20025;-70
2023/06/27 11:02:48;;;;;;;3.45;1.42;;;;;;;24.86;38.82;101955.72;5077579;28;20040;-69
2023/06/27 11:05:18;;;;;;;4.65;1.48;;;;;;;24.63;39.69;101961.72;5084791;28;20012;-70
2023/06/27 11:07:58;;;;;;;2.63;1.20;;;;;;;24.65;41.75;101959.78;5083890;28;20361;-70
2023/06/27 11:10:26;;;;;;;3.70;1.48;;;;;;;24.86;39.88;101953.06;5069901;28;20161;-70
2023/06/27 11:13:13;;;;;;;5.78;1.77;;;;;;;25.40;41.30;101958.31;5083884;28;20081;-70
2023/06/27 11:15:38;;;;;;;2.70;1.10;;;;;;;25.28;38.03;101963.63;5072294;28;20426;-70
2023/06/27 11:18:05;;;;;;;1.98;0.95;;;;;;;25.23;37.69;101958.63;5083189;28;20495;-70